Rock Lake, North Dakota
Current Conditions -  °F | °C
As of 3:35 PM on Wednesday 26 Nov 2014 (Local Time) from K06D Reporting Station
Clear Clear  
Wind Chill: -18°   Ceiling: Unl
Heat Index:   Visibility: 10mi
Dew Point: -8°   Wind: 12mph
Humidity: 72%   Direction: 350°N
Pressure: 30.4"   Gusts: NA
Location:  48.8584°N, 99.1311°W
Report Text: K06D 262135Z AUTO 35010KT 10SM CLR M18/M22 A3040 RMK AO2
Loading
Personal Weather Stations






























Interactive Weather Map New forecast layout! Learn more

10-Day Weather Forecast

Advertisements
Track Severe Weather on mobile